createdAt,value
2023-02-11T00:00:40.999Z,61.33
2023-02-11T00:03:43.650Z,56.08
2023-02-11T00:06:47.066Z,56.75
2023-02-11T00:09:50.647Z,58.87
2023-02-11T00:12:53.186Z,58.37
2023-02-11T00:15:56.621Z,58.08
2023-02-11T00:19:00.578Z,60.80
2023-02-11T00:22:04.117Z,57.85
2023-02-11T00:25:09.665Z,64.57
2023-02-11T00:28:13.496Z,58.13
2023-02-11T00:31:18.291Z,58.90
2023-02-11T00:34:20.982Z,57.78
2023-02-11T00:37:23.653Z,53.88
2023-02-11T00:40:31.198Z,57.77
2023-02-11T00:43:35.712Z,59.00
2023-02-11T00:46:39.090Z,57.63
2023-02-11T00:49:42.534Z,57.70
2023-02-11T00:52:45.265Z,58.35
2023-02-11T00:55:49.002Z,59.10
2023-02-11T00:58:54.244Z,57.00
2023-02-11T01:01:57.676Z,55.38
2023-02-11T01:05:01.131Z,56.53
2023-02-11T01:08:04.033Z,56.45
2023-02-11T01:11:13.767Z,60.03
2023-02-11T01:14:18.205Z,63.03
2023-02-11T01:17:20.887Z,59.20
2023-02-11T01:20:28.419Z,57.30
2023-02-11T01:23:33.363Z,59.95
2023-02-11T01:26:36.584Z,60.73
2023-02-11T01:29:39.194Z,57.17
2023-02-11T01:32:41.810Z,55.78
2023-02-11T01:35:45.578Z,53.20
2023-02-11T01:38:49.929Z,61.40
2023-02-11T01:41:55.376Z,63.03
2023-02-11T01:45:01.704Z,60.20
2023-02-11T01:48:06.306Z,57.00
2023-02-11T01:51:29.732Z,61.70
2023-02-11T01:54:56.534Z,60.05
2023-02-11T01:58:05.076Z,56.87
2023-02-11T02:01:11.062Z,55.23
2023-02-11T02:04:17.906Z,61.22
2023-02-11T02:07:36.773Z,60.55
2023-02-11T02:10:54.725Z,65.07
2023-02-11T02:14:00.327Z,64.03
2023-02-11T02:17:03.056Z,67.93
2023-02-11T02:20:11.973Z,65.65
2023-02-11T02:23:33.380Z,65.45
2023-02-11T02:26:49.670Z,63.85
2023-02-11T02:30:20.146Z,68.10
2023-02-11T02:33:44.722Z,61.30
2023-02-11T02:36:59.084Z,62.42
2023-02-11T02:40:11.624Z,60.53
2023-02-11T02:43:15.392Z,63.33
2023-02-11T02:46:27.245Z,61.50
2023-02-11T02:49:30.702Z,55.33
2023-02-11T02:52:48.552Z,58.45
2023-02-11T02:56:09.519Z,57.58
2023-02-11T02:59:31.449Z,55.83
2023-02-11T03:02:40.432Z,65.23
2023-02-11T03:06:24.534Z,61.50
2023-02-11T03:09:42.647Z,61.45
2023-02-11T03:12:48.610Z,55.22
2023-02-11T03:15:55.386Z,54.65
2023-02-11T03:19:24.316Z,58.73
2023-02-11T03:22:35.147Z,62.27
2023-02-11T03:25:45.672Z,57.50
2023-02-11T03:28:54.320Z,56.60
2023-02-11T03:32:04.095Z,60.33
2023-02-11T03:35:23.366Z,58.03
2023-02-11T03:38:33.321Z,59.13
2023-02-11T03:41:37.261Z,61.08
2023-02-11T03:44:58.465Z,59.53
2023-02-11T03:48:07.266Z,60.17
2023-02-11T03:51:12.731Z,57.50
2023-02-11T03:54:20.901Z,59.90
2023-02-11T03:57:24.028Z,63.33
2023-02-11T04:00:35.442Z,66.28
2023-02-11T04:03:38.246Z,66.40
2023-02-11T04:06:41.963Z,65.97
2023-02-11T04:09:44.926Z,68.50
2023-02-11T04:12:47.684Z,65.97
2023-02-11T04:15:51.686Z,67.93
2023-02-11T04:18:54.486Z,63.22
2023-02-11T04:21:58.230Z,68.30
2023-02-11T04:25:01.889Z,67.83
2023-02-11T04:28:05.426Z,74.85
2023-02-11T04:31:08.052Z,72.45
2023-02-11T04:34:11.573Z,77.63
2023-02-11T04:37:15.978Z,74.90
2023-02-11T04:40:18.747Z,74.60
2023-02-11T04:43:24.019Z,74.85
2023-02-11T04:46:26.822Z,75.22
2023-02-11T04:49:29.503Z,78.30
2023-02-11T04:52:33.094Z,81.27
2023-02-11T04:55:35.659Z,88.80
2023-02-11T04:58:39.352Z,75.40
2023-02-11T05:01:43.009Z,80.95
2023-02-11T05:04:46.526Z,74.75
2023-02-11T05:07:49.303Z,80.47
2023-02-11T05:10:53.053Z,82.37
2023-02-11T05:13:56.460Z,81.88
2023-02-11T05:16:59.357Z,78.57
2023-02-11T05:20:02.238Z,82.22
2023-02-11T05:23:05.061Z,83.93
2023-02-11T05:26:08.972Z,81.40
2023-02-11T05:29:12.382Z,85.03
2023-02-11T05:32:17.741Z,84.63
2023-02-11T05:35:21.175Z,86.95
2023-02-11T05:38:26.527Z,82.23
2023-02-11T05:41:29.122Z,80.80
2023-02-11T05:44:32.018Z,88.55
2023-02-11T05:47:35.416Z,82.50
2023-02-11T05:50:38.927Z,81.88
2023-02-11T05:53:42.537Z,84.60
2023-02-11T05:56:45.888Z,86.30
2023-02-11T05:59:48.545Z,91.72
2023-02-11T06:02:52.970Z,85.05
2023-02-11T06:05:55.593Z,87.47
2023-02-11T06:08:59.977Z,85.40
2023-02-11T06:12:02.601Z,84.77
2023-02-11T06:15:08.883Z,94.15
2023-02-11T06:18:12.567Z,87.20
2023-02-11T06:21:15.994Z,87.65
2023-02-11T06:24:38.420Z,90.53
2023-02-11T06:27:41.334Z,82.83
2023-02-11T06:30:45.030Z,83.07
2023-02-11T06:33:47.809Z,91.20
2023-02-11T06:36:50.998Z,83.20
2023-02-11T06:39:53.629Z,87.83
2023-02-11T06:42:56.298Z,92.87
2023-02-11T06:45:59.482Z,90.80
2023-02-11T06:49:02.163Z,89.03
2023-02-11T06:52:05.872Z,91.40
2023-02-11T06:55:09.621Z,93.63
2023-02-11T06:58:12.241Z,90.50
2023-02-11T07:01:16.479Z,89.20
2023-02-11T07:04:19.496Z,91.38
2023-02-11T07:07:23.219Z,85.03
2023-02-11T07:10:26.574Z,88.67
2023-02-11T07:13:29.199Z,85.87
2023-02-11T07:16:33.146Z,84.60
2023-02-11T07:19:36.966Z,88.00
2023-02-11T07:22:39.606Z,92.75
2023-02-11T07:25:43.020Z,83.97
2023-02-11T07:28:51.165Z,83.83
2023-02-11T07:31:55.182Z,90.40
2023-02-11T07:34:58.042Z,86.43
2023-02-11T07:38:00.789Z,88.32
2023-02-11T07:41:06.879Z,85.27
2023-02-11T07:44:10.724Z,84.27
2023-02-11T07:47:14.112Z,83.18
2023-02-11T07:50:17.940Z,87.35
2023-02-11T07:53:20.618Z,89.47
2023-02-11T07:56:23.578Z,82.93
2023-02-11T07:59:27.471Z,91.60
2023-02-11T08:02:30.260Z,88.90
2023-02-11T08:05:33.602Z,89.55
2023-02-11T08:08:37.203Z,89.60
2023-02-11T08:11:39.772Z,87.30
2023-02-11T08:14:43.162Z,85.33
2023-02-11T08:17:47.654Z,85.13
2023-02-11T08:20:51.335Z,86.32
2023-02-11T08:23:54.701Z,89.25
2023-02-11T08:26:57.433Z,79.27
2023-02-11T08:30:01.894Z,84.93
2023-02-11T08:33:05.594Z,84.00
2023-02-11T08:36:14.144Z,84.28
2023-02-11T08:39:21.122Z,82.90
2023-02-11T08:42:24.673Z,94.17
2023-02-11T08:45:28.612Z,83.30
2023-02-11T08:48:32.203Z,85.72
2023-02-11T08:51:35.694Z,85.10
2023-02-11T08:54:39.318Z,71.43
2023-02-11T08:57:41.918Z,51.03
2023-02-11T09:00:45.432Z,49.30
2023-02-11T09:03:48.450Z,42.78
2023-02-11T09:06:51.104Z,43.85
2023-02-11T09:09:54.819Z,42.97
2023-02-11T09:12:57.788Z,44.07
2023-02-11T09:16:03.500Z,42.40
2023-02-11T09:19:06.556Z,42.83
2023-02-11T09:22:10.318Z,43.17
2023-02-11T09:25:13.077Z,41.42
2023-02-11T09:28:16.754Z,43.20
2023-02-11T09:31:24.031Z,39.77
2023-02-11T09:34:26.984Z,41.38
2023-02-11T09:37:30.298Z,42.92
2023-02-11T09:40:34.081Z,42.67
2023-02-11T09:43:44.714Z,41.27
2023-02-11T09:46:55.841Z,42.07
2023-02-11T09:50:07.694Z,38.97
2023-02-11T09:53:16.926Z,44.83
2023-02-11T09:56:20.323Z,42.00
2023-02-11T09:59:23.876Z,38.67
2023-02-11T10:02:46.959Z,44.00
2023-02-11T10:06:01.690Z,42.97
2023-02-11T10:09:35.594Z,40.40
2023-02-11T10:12:39.190Z,45.60
2023-02-11T10:16:00.410Z,45.37
2023-02-11T10:19:28.069Z,44.67
2023-02-11T10:22:42.529Z,46.15
2023-02-11T10:25:49.579Z,47.55
2023-02-11T10:28:54.632Z,47.67
2023-02-11T10:31:58.891Z,48.20
2023-02-11T10:35:10.584Z,45.10
2023-02-11T10:38:13.314Z,46.28
2023-02-11T10:41:26.489Z,48.33
2023-02-11T10:44:37.652Z,47.00
2023-02-11T10:47:41.652Z,50.60
2023-02-11T10:50:44.420Z,46.87
2023-02-11T10:54:13.833Z,47.08
2023-02-11T10:57:20.147Z,47.22
2023-02-11T11:00:42.343Z,46.15
2023-02-11T11:03:51.917Z,44.63
2023-02-11T11:06:55.845Z,42.53
2023-02-11T11:10:06.783Z,41.25
2023-02-11T11:13:29.898Z,38.33
2023-02-11T11:16:35.289Z,39.58
2023-02-11T11:19:39.297Z,39.17
2023-02-11T11:22:43.631Z,38.77
2023-02-11T11:26:04.221Z,41.65
2023-02-11T11:29:16.317Z,44.10
2023-02-11T11:32:37.161Z,38.80
2023-02-11T11:35:41.076Z,44.30
2023-02-11T11:38:58.104Z,35.93
2023-02-11T11:42:06.266Z,41.30
2023-02-11T11:45:10.232Z,39.75
2023-02-11T11:48:34.410Z,38.30
2023-02-11T11:51:40.461Z,36.67
2023-02-11T11:54:50.554Z,37.30
2023-02-11T11:57:53.186Z,34.40
2023-02-11T12:01:11.598Z,34.63
2023-02-11T12:04:32.836Z,32.00
2023-02-11T12:07:50.302Z,32.87
2023-02-11T12:11:02.001Z,33.70
2023-02-11T12:14:17.011Z,34.33
2023-02-11T12:17:46.759Z,33.97
2023-02-11T12:21:14.931Z,34.33
2023-02-11T12:24:25.376Z,33.83
2023-02-11T12:27:50.835Z,31.53
2023-02-11T12:31:49.500Z,29.58
2023-02-11T12:34:59.669Z,29.77
2023-02-11T12:38:18.863Z,29.25
2023-02-11T12:42:03.564Z,28.30
2023-02-11T12:45:09.518Z,33.23
2023-02-11T12:48:29.160Z,27.83
2023-02-11T12:51:36.863Z,28.63
2023-02-11T12:55:00.599Z,27.45
2023-02-11T12:58:04.535Z,24.67
2023-02-11T13:01:23.885Z,23.67
2023-02-11T13:04:37.786Z,24.85
2023-02-11T13:07:45.346Z,24.00
2023-02-11T13:10:53.204Z,23.17
2023-02-11T13:14:02.124Z,24.27
2023-02-11T13:17:18.479Z,23.17
2023-02-11T13:20:37.032Z,24.60
2023-02-11T13:23:58.006Z,21.73
2023-02-11T13:27:32.169Z,22.90
2023-02-11T13:30:41.045Z,23.87
2023-02-11T13:33:44.501Z,21.77
2023-02-11T13:36:55.906Z,20.42
2023-02-11T13:40:20.440Z,22.35
2023-02-11T13:43:28.861Z,23.55
2023-02-11T13:46:51.103Z,22.70
2023-02-11T13:49:54.606Z,25.43
2023-02-11T13:53:01.459Z,21.80
2023-02-11T13:56:08.877Z,22.02
2023-02-11T13:59:33.060Z,21.80
2023-02-11T14:03:00.227Z,23.27
2023-02-11T14:06:48.047Z,20.93
2023-02-11T14:09:57.080Z,25.27
2023-02-11T14:13:22.342Z,22.23
2023-02-11T14:16:37.548Z,22.40
2023-02-11T14:19:48.054Z,21.67
2023-02-11T14:22:53.541Z,22.60
2023-02-11T14:26:08.907Z,26.05
2023-02-11T14:29:26.239Z,23.15
2023-02-11T14:33:00.029Z,24.05
2023-02-11T14:36:28.594Z,26.23
2023-02-11T14:39:52.734Z,25.07
2023-02-11T14:43:01.949Z,24.20
2023-02-11T14:46:05.768Z,29.08
2023-02-11T14:49:33.986Z,27.08
2023-02-11T14:52:38.897Z,22.70
2023-02-11T14:55:44.537Z,26.83
2023-02-11T14:58:49.539Z,33.90
2023-02-11T15:01:57.016Z,26.17
2023-02-11T15:05:20.682Z,26.17
2023-02-11T15:08:24.674Z,27.27
2023-02-11T15:11:31.843Z,25.80
2023-02-11T15:14:36.706Z,24.90
2023-02-11T15:17:39.518Z,26.23
2023-02-11T15:20:42.187Z,24.88
2023-02-11T15:23:56.672Z,24.53
2023-02-11T15:27:16.271Z,25.07
2023-02-11T15:30:21.973Z,29.48
2023-02-11T15:33:27.690Z,26.52
2023-02-11T15:36:33.160Z,25.17
2023-02-11T15:39:41.122Z,26.33
2023-02-11T15:43:06.243Z,26.67
2023-02-11T15:46:14.046Z,29.20
2023-02-11T15:49:19.279Z,30.48
2023-02-11T15:52:26.838Z,26.30
2023-02-11T15:55:30.274Z,27.27
2023-02-11T15:58:38.181Z,28.30
2023-02-11T16:01:42.774Z,26.52
2023-02-11T16:04:56.605Z,28.95
2023-02-11T16:08:01.436Z,27.50
2023-02-11T16:11:09.229Z,29.17
2023-02-11T16:14:42.264Z,32.23
2023-02-11T16:17:45.703Z,31.80
2023-02-11T16:20:49.761Z,27.98
2023-02-11T16:23:56.475Z,32.65
2023-02-11T16:27:29.836Z,27.40
2023-02-11T16:30:38.320Z,32.27
2023-02-11T16:33:42.132Z,28.98
2023-02-11T16:36:47.502Z,28.67
2023-02-11T16:39:55.296Z,27.30
2023-02-11T16:42:59.264Z,30.07
2023-02-11T16:46:02.105Z,29.57
2023-02-11T16:49:11.639Z,27.38
2023-02-11T16:52:16.850Z,30.60
2023-02-11T16:55:22.048Z,30.90
2023-02-11T16:58:25.285Z,27.33
2023-02-11T17:01:28.795Z,28.80
2023-02-11T17:04:34.420Z,29.08
2023-02-11T17:07:37.440Z,29.48
2023-02-11T17:10:41.287Z,26.98
2023-02-11T17:13:46.862Z,31.33
2023-02-11T17:16:50.804Z,30.80
2023-02-11T17:19:53.891Z,30.83
2023-02-11T17:22:56.857Z,29.50
2023-02-11T17:26:00.719Z,35.33
2023-02-11T17:29:12.179Z,34.90
2023-02-11T17:32:15.594Z,35.40
2023-02-11T17:35:19.251Z,33.83
2023-02-11T17:38:23.215Z,32.67
2023-02-11T17:41:27.349Z,30.70
2023-02-11T17:44:30.781Z,33.43
2023-02-11T17:47:33.664Z,35.30
2023-02-11T17:50:40.812Z,33.80
2023-02-11T17:53:43.986Z,34.85
2023-02-11T17:56:50.706Z,34.85
2023-02-11T17:59:54.849Z,34.33
2023-02-11T18:03:02.742Z,37.40
2023-02-11T18:06:06.809Z,33.78
2023-02-11T18:09:11.415Z,34.28
2023-02-11T18:12:14.414Z,35.80
2023-02-11T18:15:18.584Z,34.30
2023-02-11T18:18:21.730Z,32.73
2023-02-11T18:21:25.964Z,35.65
2023-02-11T18:24:30.279Z,35.58
2023-02-11T18:27:32.894Z,34.83
2023-02-11T18:30:36.399Z,33.73
2023-02-11T18:33:41.374Z,35.20
2023-02-11T18:36:44.963Z,36.47
2023-02-11T18:39:48.912Z,36.70
2023-02-11T18:42:52.297Z,35.20
2023-02-11T18:45:55.895Z,32.37
2023-02-11T18:48:58.896Z,44.13
2023-02-11T18:52:03.424Z,34.60
2023-02-11T18:55:07.658Z,34.90
2023-02-11T18:58:10.905Z,33.83
2023-02-11T19:01:21.114Z,34.47
2023-02-11T19:04:24.872Z,37.53
2023-02-11T19:07:27.947Z,37.88
2023-02-11T19:10:31.395Z,37.40
2023-02-11T19:13:35.384Z,36.88
2023-02-11T19:16:43.710Z,41.43
2023-02-11T19:19:48.498Z,45.73
2023-02-11T19:22:51.394Z,38.28
2023-02-11T19:25:54.405Z,38.05
2023-02-11T19:28:59.459Z,46.65
2023-02-11T19:32:05.844Z,38.87
2023-02-11T19:35:09.546Z,36.97
2023-02-11T19:38:15.796Z,35.40
2023-02-11T19:41:24.745Z,35.75
2023-02-11T19:44:28.497Z,37.90
2023-02-11T19:47:31.532Z,40.33
2023-02-11T19:50:36.982Z,36.27
2023-02-11T19:53:41.182Z,35.88
2023-02-11T19:56:44.970Z,38.88
2023-02-11T19:59:49.285Z,37.05
2023-02-11T20:02:52.697Z,39.20
2023-02-11T20:05:55.592Z,36.73
2023-02-11T20:09:02.004Z,36.38
2023-02-11T20:12:06.596Z,35.28
2023-02-11T20:15:10.440Z,37.40
2023-02-11T20:18:14.008Z,34.90
2023-02-11T20:21:19.931Z,34.70
2023-02-11T20:24:23.810Z,32.15
2023-02-11T20:27:32.202Z,33.10
2023-02-11T20:30:35.251Z,31.27
2023-02-11T20:33:38.943Z,33.57
2023-02-11T20:36:42.053Z,33.90
2023-02-11T20:39:45.552Z,37.00
2023-02-11T20:42:48.999Z,31.42
2023-02-11T20:45:53.766Z,33.90
2023-02-11T20:48:57.547Z,33.43
2023-02-11T20:52:00.478Z,33.60
2023-02-11T20:55:03.692Z,31.42
2023-02-11T20:58:09.343Z,29.17
2023-02-11T21:01:20.178Z,32.95
2023-02-11T21:04:29.712Z,30.53
2023-02-11T21:07:32.611Z,32.87
2023-02-11T21:10:35.372Z,28.25
2023-02-11T21:13:40.261Z,28.80
2023-02-11T21:16:44.145Z,26.73
2023-02-11T21:19:47.003Z,30.03
2023-02-11T21:22:50.189Z,31.23
2023-02-11T21:25:54.663Z,29.45
2023-02-11T21:28:57.962Z,28.38
2023-02-11T21:32:01.105Z,29.15
2023-02-11T21:35:05.567Z,29.57
2023-02-11T21:38:08.328Z,27.87
2023-02-11T21:41:11.873Z,30.75
2023-02-11T21:44:15.744Z,30.52
2023-02-11T21:47:18.403Z,30.60
2023-02-11T21:50:22.084Z,28.37
2023-02-11T21:53:24.815Z,31.03
2023-02-11T21:56:29.655Z,32.25
2023-02-11T21:59:32.731Z,27.92
2023-02-11T22:02:37.978Z,31.73
2023-02-11T22:05:41.383Z,28.13
2023-02-11T22:08:44.820Z,29.07
2023-02-11T22:11:49.349Z,26.65
2023-02-11T22:14:51.856Z,25.73
2023-02-11T22:17:54.466Z,28.48
2023-02-11T22:21:06.967Z,25.87
2023-02-11T22:24:10.566Z,26.23
2023-02-11T22:27:14.693Z,25.48
2023-02-11T22:30:18.197Z,32.35
2023-02-11T22:33:23.127Z,26.33
2023-02-11T22:36:29.877Z,27.63
2023-02-11T22:39:33.184Z,27.87
2023-02-11T22:42:35.939Z,30.48
2023-02-11T22:45:39.152Z,29.00
2023-02-11T22:48:42.425Z,26.83
2023-02-11T22:51:46.496Z,25.87
2023-02-11T22:54:51.329Z,25.57
2023-02-11T22:57:53.928Z,27.80
2023-02-11T23:00:56.625Z,26.63
2023-02-11T23:04:01.258Z,28.90
2023-02-11T23:07:04.688Z,26.43
2023-02-11T23:10:10.552Z,27.20
2023-02-11T23:13:14.240Z,27.63
2023-02-11T23:16:20.155Z,24.58
2023-02-11T23:19:23.979Z,28.20
2023-02-11T23:22:27.931Z,26.77
2023-02-11T23:25:31.429Z,27.03
2023-02-11T23:28:34.076Z,28.95
2023-02-11T23:31:40.437Z,25.48
2023-02-11T23:34:43.240Z,27.15
2023-02-11T23:37:45.929Z,28.30
2023-02-11T23:40:49.175Z,26.47
2023-02-11T23:43:56.412Z,27.98
2023-02-11T23:46:59.733Z,28.95
2023-02-11T23:50:04.161Z,27.55
2023-02-11T23:53:08.713Z,29.73
2023-02-11T23:56:20.189Z,27.20
2023-02-11T23:59:22.966Z,27.45
